sensor_id;sensor_type;location;lat;lon;timestamp;pressure;altitude;pressure_sealevel;temperature;humidity
51321;BME280;38732;49.556;6.286;2022-10-13T00:01:16;100172.88;;;12.21;96.15
51321;BME280;38732;49.556;6.286;2022-10-13T00:03:45;100165.06;;;12.15;99.32
51321;BME280;38732;49.556;6.286;2022-10-13T00:06:19;100169.38;;;12.10;98.35
51321;BME280;38732;49.556;6.286;2022-10-13T00:08:48;100170.25;;;12.14;98.53
51321;BME280;38732;49.556;6.286;2022-10-13T00:11:25;100172.03;;;12.21;98.39
51321;BME280;38732;49.556;6.286;2022-10-13T00:13:56;100169.50;;;12.33;99.08
51321;BME280;38732;49.556;6.286;2022-10-13T00:16:26;100172.09;;;12.39;98.30
51321;BME280;38732;49.556;6.286;2022-10-13T00:18:55;100170.34;;;12.34;97.20
51321;BME280;38732;49.556;6.286;2022-10-13T00:21:25;100163.44;;;12.37;97.00
51321;BME280;38732;49.556;6.286;2022-10-13T00:23:54;100161.72;;;12.33;96.08
51321;BME280;38732;49.556;6.286;2022-10-13T00:26:24;100172.91;;;12.26;96.27
51321;BME280;38732;49.556;6.286;2022-10-13T00:28:54;100156.53;;;12.32;96.39
51321;BME280;38732;49.556;6.286;2022-10-13T00:31:25;100161.69;;;12.27;96.68
51321;BME280;38732;49.556;6.286;2022-10-13T00:33:54;100170.38;;;12.41;96.04
51321;BME280;38732;49.556;6.286;2022-10-13T00:36:23;100166.91;;;12.38;96.24
51321;BME280;38732;49.556;6.286;2022-10-13T00:38:52;100167.75;;;12.32;95.64
51321;BME280;38732;49.556;6.286;2022-10-13T00:41:20;100168.56;;;12.25;96.66
51321;BME280;38732;49.556;6.286;2022-10-13T00:43:58;100161.72;;;12.32;96.06
51321;BME280;38732;49.556;6.286;2022-10-13T00:46:29;100154.81;;;12.34;95.32
51321;BME280;38732;49.556;6.286;2022-10-13T00:49:00;100153.13;;;12.45;95.77
51321;BME280;38732;49.556;6.286;2022-10-13T00:51:31;100147.91;;;12.34;94.31
51321;BME280;38732;49.556;6.286;2022-10-13T00:54:02;100149.63;;;12.32;94.55
51321;BME280;38732;49.556;6.286;2022-10-13T00:56:35;100152.22;;;12.30;94.68
51321;BME280;38732;49.556;6.286;2022-10-13T00:59:20;100147.06;;;12.38;94.44
51321;BME280;38732;49.556;6.286;2022-10-13T01:01:50;100143.59;;;12.38;93.66
51321;BME280;38732;49.556;6.286;2022-10-13T01:04:21;100139.25;;;12.32;93.11
51321;BME280;38732;49.556;6.286;2022-10-13T01:06:51;100143.53;;;12.25;93.18
51321;BME280;38732;49.556;6.286;2022-10-13T01:09:20;100138.38;;;12.21;93.33
51321;BME280;38732;49.556;6.286;2022-10-13T01:17:34;100128.84;;;12.17;93.44
51321;BME280;38732;49.556;6.286;2022-10-13T01:20:31;100130.59;;;12.21;93.45
51321;BME280;38732;49.556;6.286;2022-10-13T01:31:19;100117.66;;;12.22;91.08
51321;BME280;38732;49.556;6.286;2022-10-13T01:33:58;100121.16;;;12.34;91.47
51321;BME280;38732;49.556;6.286;2022-10-13T01:39:34;100112.53;;;12.41;90.89
51321;BME280;38732;49.556;6.286;2022-10-13T01:42:29;100109.91;;;12.35;90.25
51321;BME280;38732;49.556;6.286;2022-10-13T01:45:01;100100.44;;;12.40;89.65
51321;BME280;38732;49.556;6.286;2022-10-13T01:47:33;100100.44;;;12.43;88.78
51321;BME280;38732;49.556;6.286;2022-10-13T01:50:03;100106.47;;;12.33;88.85
51321;BME280;38732;49.556;6.286;2022-10-13T01:52:36;100106.47;;;12.31;88.57
51321;BME280;38732;49.556;6.286;2022-10-13T01:55:09;100096.94;;;12.27;88.83
51321;BME280;38732;49.556;6.286;2022-10-13T01:57:40;100092.66;;;12.32;89.15
51321;BME280;38732;49.556;6.286;2022-10-13T02:00:13;100092.66;;;12.30;89.05
51321;BME280;38732;49.556;6.286;2022-10-13T02:05:42;100077.97;;;12.29;89.67
51321;BME280;38732;49.556;6.286;2022-10-13T02:08:20;100075.41;;;12.31;90.12
51321;BME280;38732;49.556;6.286;2022-10-13T02:11:13;100071.06;;;12.35;89.96
51321;BME280;38732;49.556;6.286;2022-10-13T02:14:06;100078.88;;;12.41;89.64
51321;BME280;38732;49.556;6.286;2022-10-13T02:16:41;100071.94;;;12.43;88.99
51321;BME280;38732;49.556;6.286;2022-10-13T02:19:13;100075.44;;;12.43;88.82
51321;BME280;38732;49.556;6.286;2022-10-13T02:21:43;100069.38;;;12.37;88.65
51321;BME280;38732;49.556;6.286;2022-10-13T02:24:12;100075.41;;;12.36;89.14
51321;BME280;38732;49.556;6.286;2022-10-13T02:26:40;100078.00;;;12.45;90.36
51321;BME280;38732;49.556;6.286;2022-10-13T02:29:11;100069.38;;;12.43;89.80
51321;BME280;38732;49.556;6.286;2022-10-13T02:31:41;100064.19;;;12.47;90.23
51321;BME280;38732;49.556;6.286;2022-10-13T02:34:10;100046.06;;;12.43;89.27
51321;BME280;38732;49.556;6.286;2022-10-13T02:36:39;100040.88;;;12.43;90.00
51321;BME280;38732;49.556;6.286;2022-10-13T02:39:09;100040.03;;;12.36;89.63
51321;BME280;38732;49.556;6.286;2022-10-13T02:41:37;100037.44;;;12.41;89.85
51321;BME280;38732;49.556;6.286;2022-10-13T02:44:06;100037.44;;;12.36;89.93
51321;BME280;38732;49.556;6.286;2022-10-13T02:46:34;100035.69;;;12.35;90.35
51321;BME280;38732;49.556;6.286;2022-10-13T02:49:02;100040.00;;;12.39;91.50
51321;BME280;38732;49.556;6.286;2022-10-13T02:51:30;100052.13;;;12.43;89.88
51321;BME280;38732;49.556;6.286;2022-10-13T02:53:59;100055.56;;;12.42;90.20
51321;BME280;38732;49.556;6.286;2022-10-13T02:56:27;100052.09;;;12.42;90.25
51321;BME280;38732;49.556;6.286;2022-10-13T02:58:55;100058.16;;;12.50;89.84
51321;BME280;38732;49.556;6.286;2022-10-13T03:01:23;100056.44;;;12.57;90.64
51321;BME280;38732;49.556;6.286;2022-10-13T03:03:52;100053.00;;;12.61;90.90
51321;BME280;38732;49.556;6.286;2022-10-13T03:06:20;100044.34;;;12.57;89.48
51321;BME280;38732;49.556;6.286;2022-10-13T03:08:48;100038.31;;;12.60;89.58
51321;BME280;38732;49.556;6.286;2022-10-13T03:11:16;100047.78;;;12.50;89.83
51321;BME280;38732;49.556;6.286;2022-10-13T03:13:45;100056.41;;;12.43;90.14
51321;BME280;38732;49.556;6.286;2022-10-13T03:16:13;100059.88;;;12.52;89.53
51321;BME280;38732;49.556;6.286;2022-10-13T03:18:41;100060.72;;;12.45;90.10
51321;BME280;38732;49.556;6.286;2022-10-13T03:21:09;100069.38;;;12.52;90.62
51321;BME280;38732;49.556;6.286;2022-10-13T03:23:38;100068.53;;;12.51;90.79
51321;BME280;38732;49.556;6.286;2022-10-13T03:26:06;100073.72;;;12.56;90.69
51321;BME280;38732;49.556;6.286;2022-10-13T03:28:34;100069.41;;;12.61;89.89
51321;BME280;38732;49.556;6.286;2022-10-13T03:31:05;100070.28;;;12.59;88.93
51321;BME280;38732;49.556;6.286;2022-10-13T03:33:34;100061.63;;;12.50;90.02
51321;BME280;38732;49.556;6.286;2022-10-13T03:36:04;100057.31;;;12.57;90.27
51321;BME280;38732;49.556;6.286;2022-10-13T03:38:34;100054.75;;;12.63;89.73
51321;BME280;38732;49.556;6.286;2022-10-13T03:41:10;100045.22;;;12.58;89.27
51321;BME280;38732;49.556;6.286;2022-10-13T03:43:40;100040.06;;;12.67;89.18
51321;BME280;38732;49.556;6.286;2022-10-13T03:46:10;100038.34;;;12.70;89.48
51321;BME280;38732;49.556;6.286;2022-10-13T03:48:39;100017.59;;;12.66;89.59
51321;BME280;38732;49.556;6.286;2022-10-13T03:51:13;100020.19;;;12.66;90.20
51321;BME280;38732;49.556;6.286;2022-10-13T03:53:41;100026.22;;;12.65;90.57
51321;BME280;38732;49.556;6.286;2022-10-13T03:56:15;100034.03;;;12.71;90.14
51321;BME280;38732;49.556;6.286;2022-10-13T03:58:44;100034.00;;;12.77;89.33
51321;BME280;38732;49.556;6.286;2022-10-13T04:01:12;100033.16;;;12.84;89.76
51321;BME280;38732;49.556;6.286;2022-10-13T04:03:41;100032.28;;;12.74;89.21
51321;BME280;38732;49.556;6.286;2022-10-13T04:06:09;100037.47;;;12.74;89.44
51321;BME280;38732;49.556;6.286;2022-10-13T04:08:37;100040.06;;;12.71;89.82
51321;BME280;38732;49.556;6.286;2022-10-13T04:11:09;100039.19;;;12.66;89.38
51321;BME280;38732;49.556;6.286;2022-10-13T04:13:38;100042.63;;;12.74;88.58
51321;BME280;38732;49.556;6.286;2022-10-13T04:16:08;100043.50;;;12.64;88.27
51321;BME280;38732;49.556;6.286;2022-10-13T04:18:39;100040.06;;;12.67;88.41
51321;BME280;38732;49.556;6.286;2022-10-13T04:21:08;100035.72;;;12.61;88.46
51321;BME280;38732;49.556;6.286;2022-10-13T04:23:37;100045.22;;;12.58;88.29
51321;BME280;38732;49.556;6.286;2022-10-13T04:26:05;100040.91;;;12.61;89.14
51321;BME280;38732;49.556;6.286;2022-10-13T04:28:34;100041.78;;;12.59;88.42
51321;BME280;38732;49.556;6.286;2022-10-13T04:31:02;100035.72;;;12.60;88.39
51321;BME280;38732;49.556;6.286;2022-10-13T04:33:30;100027.97;;;12.54;88.24
51321;BME280;38732;49.556;6.286;2022-10-13T04:36:05;100033.97;;;12.49;88.13
51321;BME280;38732;49.556;6.286;2022-10-13T04:38:33;100028.81;;;12.54;88.30
51321;BME280;38732;49.556;6.286;2022-10-13T04:41:05;100029.66;;;12.47;89.47
51321;BME280;38732;49.556;6.286;2022-10-13T04:43:34;100038.31;;;12.44;88.53
51321;BME280;38732;49.556;6.286;2022-10-13T04:46:04;100026.22;;;12.49;88.63
51321;BME280;38732;49.556;6.286;2022-10-13T04:48:33;100037.44;;;12.50;88.59
51321;BME280;38732;49.556;6.286;2022-10-13T04:51:04;100033.13;;;12.49;88.79
51321;BME280;38732;49.556;6.286;2022-10-13T04:53:33;100030.56;;;12.50;89.24
51321;BME280;38732;49.556;6.286;2022-10-13T04:56:04;100024.50;;;12.56;88.27
51321;BME280;38732;49.556;6.286;2022-10-13T04:58:33;100019.28;;;12.45;88.48
51321;BME280;38732;49.556;6.286;2022-10-13T05:01:04;100009.84;;;12.58;89.27
51321;BME280;38732;49.556;6.286;2022-10-13T05:03:33;100006.34;;;12.45;87.77
51321;BME280;38732;49.556;6.286;2022-10-13T05:06:02;100008.97;;;12.48;88.39
51321;BME280;38732;49.556;6.286;2022-10-13T05:08:30;100013.28;;;12.56;88.28
51321;BME280;38732;49.556;6.286;2022-10-13T05:11:00;100008.94;;;12.58;88.75
51321;BME280;38732;49.556;6.286;2022-10-13T05:13:29;99996.88;;;12.54;88.65
51321;BME280;38732;49.556;6.286;2022-10-13T05:15:57;99989.97;;;12.51;88.48
51321;BME280;38732;49.556;6.286;2022-10-13T05:18:25;99983.91;;;12.46;87.96
51321;BME280;38732;49.556;6.286;2022-10-13T05:20:53;99988.25;;;12.48;88.64
51321;BME280;38732;49.556;6.286;2022-10-13T05:23:22;99989.09;;;12.47;88.59
51321;BME280;38732;49.556;6.286;2022-10-13T05:25:50;99994.28;;;12.64;89.32
51321;BME280;38732;49.556;6.286;2022-10-13T05:28:18;99984.78;;;12.62;87.99
51321;BME280;38732;49.556;6.286;2022-10-13T05:30:46;99990.84;;;12.56;87.68
51321;BME280;38732;49.556;6.286;2022-10-13T05:33:14;99996.88;;;12.46;87.66
51321;BME280;38732;49.556;6.286;2022-10-13T05:35:43;99989.97;;;12.51;89.00
51321;BME280;38732;49.556;6.286;2022-10-13T05:38:11;100007.22;;;12.47;88.55
51321;BME280;38732;49.556;6.286;2022-10-13T05:40:39;100012.41;;;12.46;88.80
51321;BME280;38732;49.556;6.286;2022-10-13T05:43:07;99999.47;;;12.49;89.71
51321;BME280;38732;49.556;6.286;2022-10-13T05:45:36;100019.31;;;12.58;90.36
51321;BME280;38732;49.556;6.286;2022-10-13T05:48:04;100010.69;;;12.65;89.57
51321;BME280;38732;49.556;6.286;2022-10-13T05:50:33;100008.09;;;12.63;89.76
51321;BME280;38732;49.556;6.286;2022-10-13T05:53:01;100007.22;;;12.60;88.39
51321;BME280;38732;49.556;6.286;2022-10-13T05:55:29;100003.75;;;12.65;89.38
51321;BME280;38732;49.556;6.286;2022-10-13T05:57:59;100006.38;;;12.61;88.56
51321;BME280;38732;49.556;6.286;2022-10-13T06:00:28;100003.78;;;12.64;89.25
51321;BME280;38732;49.556;6.286;2022-10-13T06:03:11;100003.78;;;12.56;89.60
51321;BME280;38732;49.556;6.286;2022-10-13T06:05:41;100006.34;;;12.62;90.00
51321;BME280;38732;49.556;6.286;2022-10-13T06:08:10;99993.44;;;12.56;90.67
51321;BME280;38732;49.556;6.286;2022-10-13T06:10:38;99984.78;;;12.52;91.03
51321;BME280;38732;49.556;6.286;2022-10-13T06:13:08;99978.72;;;12.52;90.86
51321;BME280;38732;49.556;6.286;2022-10-13T06:15:36;99975.28;;;12.48;91.45
51321;BME280;38732;49.556;6.286;2022-10-13T06:18:08;99968.38;;;12.50;92.26
51321;BME280;38732;49.556;6.286;2022-10-13T06:20:37;99964.06;;;12.49;92.03
51321;BME280;38732;49.556;6.286;2022-10-13T06:23:05;99967.53;;;12.48;92.68
51321;BME280;38732;49.556;6.286;2022-10-13T06:25:33;99969.22;;;12.57;92.67
51321;BME280;38732;49.556;6.286;2022-10-13T06:28:02;99976.13;;;12.63;92.66
51321;BME280;38732;49.556;6.286;2022-10-13T06:30:30;99975.28;;;12.55;92.88
51321;BME280;38732;49.556;6.286;2022-10-13T06:32:58;99975.28;;;12.58;92.61
51321;BME280;38732;49.556;6.286;2022-10-13T06:35:26;99976.16;;;12.64;92.84
51321;BME280;38732;49.556;6.286;2022-10-13T06:37:55;99978.72;;;12.83;93.43
51321;BME280;38732;49.556;6.286;2022-10-13T06:40:24;99974.41;;;12.79;91.46
51321;BME280;38732;49.556;6.286;2022-10-13T06:42:52;99989.09;;;12.73;91.08
51321;BME280;38732;49.556;6.286;2022-10-13T06:45:20;99985.63;;;12.78;91.38
51321;BME280;38732;49.556;6.286;2022-10-13T06:47:51;99989.09;;;12.81;91.29
51321;BME280;38732;49.556;6.286;2022-10-13T06:50:21;99986.53;;;12.78;90.05
51321;BME280;38732;49.556;6.286;2022-10-13T06:52:49;99976.97;;;12.88;91.09
51321;BME280;38732;49.556;6.286;2022-10-13T06:55:18;99974.41;;;12.91;90.52
51321;BME280;38732;49.556;6.286;2022-10-13T06:57:46;99988.22;;;12.91;91.49
51321;BME280;38732;49.556;6.286;2022-10-13T07:00:14;99983.03;;;12.94;90.09
51321;BME280;38732;49.556;6.286;2022-10-13T07:02:43;99983.91;;;12.90;90.57
51321;BME280;38732;49.556;6.286;2022-10-13T07:05:11;99984.75;;;12.97;91.19
51321;BME280;38732;49.556;6.286;2022-10-13T07:07:39;99980.41;;;13.13;90.35
51321;BME280;38732;49.556;6.286;2022-10-13T07:10:08;99985.59;;;13.11;90.81
51321;BME280;38732;49.556;6.286;2022-10-13T07:12:36;99982.13;;;13.17;90.00
51321;BME280;38732;49.556;6.286;2022-10-13T07:15:05;99987.31;;;13.22;90.14
51321;BME280;38732;49.556;6.286;2022-10-13T07:17:33;99987.28;;;13.26;89.41
51321;BME280;38732;49.556;6.286;2022-10-13T07:20:02;99995.09;;;13.28;88.77
51321;BME280;38732;49.556;6.286;2022-10-13T07:22:31;99989.91;;;13.34;88.89
51321;BME280;38732;49.556;6.286;2022-10-13T07:24:59;99982.13;;;13.34;88.45
51321;BME280;38732;49.556;6.286;2022-10-13T07:27:27;99979.50;;;13.42;88.84
51321;BME280;38732;49.556;6.286;2022-10-13T07:29:55;99970.81;;;13.53;88.23
51321;BME280;38732;49.556;6.286;2022-10-13T07:32:24;99966.47;;;13.54;87.49
51321;BME280;38732;49.556;6.286;2022-10-13T07:34:52;99980.31;;;13.61;86.95
51321;BME280;38732;49.556;6.286;2022-10-13T07:37:20;99975.91;;;13.73;88.06
51321;BME280;38732;49.556;6.286;2022-10-13T07:39:49;99966.41;;;13.75;86.30
51321;BME280;38732;49.556;6.286;2022-10-13T07:42:17;99969.00;;;13.71;86.40
51321;BME280;38732;49.556;6.286;2022-10-13T07:44:45;99980.28;;;13.64;86.58
51321;BME280;38732;49.556;6.286;2022-10-13T07:47:13;99975.09;;;13.62;87.49
51321;BME280;38732;49.556;6.286;2022-10-13T07:49:42;99969.06;;;13.63;87.41
51321;BME280;38732;49.556;6.286;2022-10-13T07:52:10;99975.09;;;13.64;87.79
51321;BME280;38732;49.556;6.286;2022-10-13T07:54:38;99979.38;;;13.75;88.98
51321;BME280;38732;49.556;6.286;2022-10-13T07:57:06;99980.25;;;13.65;87.25
51321;BME280;38732;49.556;6.286;2022-10-13T07:59:35;99987.09;;;13.85;88.48
51321;BME280;38732;49.556;6.286;2022-10-13T08:02:03;99974.97;;;13.93;87.80
51321;BME280;38732;49.556;6.286;2022-10-13T08:04:33;99966.34;;;13.80;86.92
51321;BME280;38732;49.556;6.286;2022-10-13T08:07:03;99965.50;;;13.79;86.35
51321;BME280;38732;49.556;6.286;2022-10-13T08:09:32;99972.41;;;13.84;86.73
51321;BME280;38732;49.556;6.286;2022-10-13T08:12:00;99978.41;;;13.90;85.66
51321;BME280;38732;49.556;6.286;2022-10-13T08:14:29;99970.69;;;13.81;86.88
51321;BME280;38732;49.556;6.286;2022-10-13T08:16:58;99969.78;;;13.93;87.27
51321;BME280;38732;49.556;6.286;2022-10-13T08:19:26;99961.03;;;14.06;88.06
51321;BME280;38732;49.556;6.286;2022-10-13T08:21:55;99956.69;;;14.05;87.65
51321;BME280;38732;49.556;6.286;2022-10-13T08:24:23;99957.44;;;14.22;87.04
51321;BME280;38732;49.556;6.286;2022-10-13T08:26:51;99958.31;;;14.20;87.11
51321;BME280;38732;49.556;6.286;2022-10-13T08:29:20;99959.13;;;14.31;87.24
51321;BME280;38732;49.556;6.286;2022-10-13T08:31:48;99958.25;;;14.34;86.62
51321;BME280;38732;49.556;6.286;2022-10-13T08:34:17;99966.00;;;14.37;85.79
51321;BME280;38732;49.556;6.286;2022-10-13T08:36:45;99975.50;;;14.41;86.44
51321;BME280;38732;49.556;6.286;2022-10-13T08:39:13;99969.44;;;14.39;86.27
51321;BME280;38732;49.556;6.286;2022-10-13T08:41:43;99982.38;;;14.46;87.49
51321;BME280;38732;49.556;6.286;2022-10-13T08:47:14;99985.00;;;14.43;86.45
51321;BME280;38732;49.556;6.286;2022-10-13T08:49:45;99989.25;;;14.57;86.83
51321;BME280;38732;49.556;6.286;2022-10-13T08:52:19;99992.75;;;14.56;87.33
51321;BME280;38732;49.556;6.286;2022-10-13T08:54:49;99992.72;;;14.60;86.41
51321;BME280;38732;49.556;6.286;2022-10-13T08:57:18;99980.53;;;14.62;86.70
51321;BME280;38732;49.556;6.286;2022-10-13T08:59:47;99979.66;;;14.68;86.42
51321;BME280;38732;49.556;6.286;2022-10-13T09:02:24;99978.69;;;14.77;86.36
51321;BME280;38732;49.556;6.286;2022-10-13T09:04:57;99986.41;;;14.89;86.66
51321;BME280;38732;49.556;6.286;2022-10-13T09:07:31;99980.25;;;14.95;86.87
51321;BME280;38732;49.556;6.286;2022-10-13T09:10:02;99979.28;;;15.08;86.22
51321;BME280;38732;49.556;6.286;2022-10-13T09:12:31;99980.81;;;15.26;86.63
51321;BME280;38732;49.556;6.286;2022-10-13T09:15:00;99976.31;;;15.42;85.71
51321;BME280;38732;49.556;6.286;2022-10-13T09:17:29;99980.41;;;15.63;83.97
51321;BME280;38732;49.556;6.286;2022-10-13T09:20:23;99975.09;;;15.73;83.73
51321;BME280;38732;49.556;6.286;2022-10-13T09:23:05;99974.84;;;15.92;82.30
51321;BME280;38732;49.556;6.286;2022-10-13T09:25:40;99975.34;;;16.17;80.78
51321;BME280;38732;49.556;6.286;2022-10-13T09:28:15;99969.72;;;16.45;82.94
51321;BME280;38732;49.556;6.286;2022-10-13T09:30:45;99971.97;;;16.68;80.09
51321;BME280;38732;49.556;6.286;2022-10-13T09:33:22;99964.63;;;16.90;79.32
51321;BME280;38732;49.556;6.286;2022-10-13T09:38:28;99951.06;;;17.19;75.97
51321;BME280;38732;49.556;6.286;2022-10-13T09:41:20;99957.56;;;17.43;74.65
51321;BME280;38732;49.556;6.286;2022-10-13T09:46:32;99953.50;;;17.70;71.40
51321;BME280;38732;49.556;6.286;2022-10-13T09:49:06;99946.63;;;17.66;72.16
51321;BME280;38732;49.556;6.286;2022-10-13T09:51:40;99941.13;;;17.78;71.89
51321;BME280;38732;49.556;6.286;2022-10-13T09:54:46;99930.72;;;17.77;72.51
51321;BME280;38732;49.556;6.286;2022-10-13T10:00:22;99930.28;;;17.98;70.62
51321;BME280;38732;49.556;6.286;2022-10-13T10:08:24;99924.03;;;18.04;70.63
51321;BME280;38732;49.556;6.286;2022-10-13T10:10:54;99923.94;;;18.08;71.00
51321;BME280;38732;49.556;6.286;2022-10-13T10:13:23;99922.88;;;18.17;71.96
51321;BME280;38732;49.556;6.286;2022-10-13T10:16:00;99913.47;;;18.10;71.10
51321;BME280;38732;49.556;6.286;2022-10-13T10:18:38;99914.34;;;18.09;71.26
51321;BME280;38732;49.556;6.286;2022-10-13T10:24:10;99912.72;;;18.05;72.95
51321;BME280;38732;49.556;6.286;2022-10-13T10:26:54;99914.69;;;17.94;69.55
51321;BME280;38732;49.556;6.286;2022-10-13T10:32:26;99910.91;;;17.68;71.66
51321;BME280;38732;49.556;6.286;2022-10-13T10:35:00;99900.31;;;17.74;72.26
51321;BME280;38732;49.556;6.286;2022-10-13T10:40:20;99890.59;;;17.82;72.53
51321;BME280;38732;49.556;6.286;2022-10-13T10:42:55;99889.75;;;17.79;73.19
51321;BME280;38732;49.556;6.286;2022-10-13T10:45:33;99894.88;;;17.85;70.97
51321;BME280;38732;49.556;6.286;2022-10-13T10:48:35;99897.25;;;17.94;70.68
51321;BME280;38732;49.556;6.286;2022-10-13T10:51:06;99894.72;;;17.91;71.19
51321;BME280;38732;49.556;6.286;2022-10-13T10:56:29;99882.41;;;17.96;70.99
51321;BME280;38732;49.556;6.286;2022-10-13T10:59:39;99886.59;;;18.05;70.78
51321;BME280;38732;49.556;6.286;2022-10-13T11:04:52;99874.72;;;18.60;71.40
51321;BME280;38732;49.556;6.286;2022-10-13T11:15:08;99855.38;;;19.00;69.58
51321;BME280;38732;49.556;6.286;2022-10-13T11:17:40;99853.41;;;19.07;69.52
51321;BME280;38732;49.556;6.286;2022-10-13T11:25:41;99842.78;;;19.13;69.45
51321;BME280;38732;49.556;6.286;2022-10-13T11:30:49;99844.91;;;19.58;65.21
51321;BME280;38732;49.556;6.286;2022-10-13T11:36:36;99837.59;;;19.97;66.84
51321;BME280;38732;49.556;6.286;2022-10-13T11:42:14;99820.81;;;20.80;62.21
51321;BME280;38732;49.556;6.286;2022-10-13T11:45:00;99817.09;;;20.85;59.64
51321;BME280;38732;49.556;6.286;2022-10-13T11:53:17;99813.47;;;20.39;64.27
51321;BME280;38732;49.556;6.286;2022-10-13T11:55:54;99811.81;;;20.37;63.91
51321;BME280;38732;49.556;6.286;2022-10-13T11:58:25;99814.78;;;20.26;63.43
51321;BME280;38732;49.556;6.286;2022-10-13T12:03:35;99805.38;;;19.94;66.64
51321;BME280;38732;49.556;6.286;2022-10-13T12:06:14;99806.50;;;20.12;65.09
51321;BME280;38732;49.556;6.286;2022-10-13T12:08:50;99800.38;;;19.86;65.46
51321;BME280;38732;49.556;6.286;2022-10-13T12:11:23;99811.47;;;19.66;66.06
51321;BME280;38732;49.556;6.286;2022-10-13T12:13:53;99807.16;;;19.37;68.46
51321;BME280;38732;49.556;6.286;2022-10-13T12:16:21;99812.69;;;18.96;69.14
51321;BME280;38732;49.556;6.286;2022-10-13T12:18:50;99799.22;;;19.40;69.14
51321;BME280;38732;49.556;6.286;2022-10-13T12:21:21;99798.41;;;19.08;70.06
51321;BME280;38732;49.556;6.286;2022-10-13T12:23:51;99796.88;;;19.01;71.00
51321;BME280;38732;49.556;6.286;2022-10-13T12:26:32;99788.50;;;19.20;69.99
51321;BME280;38732;49.556;6.286;2022-10-13T12:29:02;99789.09;;;19.00;71.33
51321;BME280;38732;49.556;6.286;2022-10-13T12:31:40;99788.56;;;18.87;71.35
51321;BME280;38732;49.556;6.286;2022-10-13T12:34:31;99789.25;;;19.23;71.37
51321;BME280;38732;49.556;6.286;2022-10-13T12:37:02;99785.38;;;18.77;74.35
51321;BME280;38732;49.556;6.286;2022-10-13T12:39:34;99788.38;;;18.62;74.34
51321;BME280;38732;49.556;6.286;2022-10-13T12:42:06;99783.63;;;19.07;72.89
51321;BME280;38732;49.556;6.286;2022-10-13T12:44:34;99773.78;;;19.15;72.17
51321;BME280;38732;49.556;6.286;2022-10-13T12:47:03;99788.53;;;19.18;72.73
51321;BME280;38732;49.556;6.286;2022-10-13T12:49:34;99781.53;;;19.18;74.43
51321;BME280;38732;49.556;6.286;2022-10-13T12:54:38;99791.28;;;19.13;76.14
51321;BME280;38732;49.556;6.286;2022-10-13T12:57:29;99790.88;;;18.98;77.83
51321;BME280;38732;49.556;6.286;2022-10-13T12:59:58;99787.03;;;18.80;78.21
51321;BME280;38732;49.556;6.286;2022-10-13T13:02:28;99790.50;;;18.80;81.11
51321;BME280;38732;49.556;6.286;2022-10-13T13:04:58;99793.72;;;18.24;84.63
51321;BME280;38732;49.556;6.286;2022-10-13T13:07:30;99799.72;;;17.58;92.20
51321;BME280;38732;49.556;6.286;2022-10-13T13:12:30;99789.78;;;18.42;88.54
51321;BME280;38732;49.556;6.286;2022-10-13T13:15:19;99784.34;;;18.50;88.79
51321;BME280;38732;49.556;6.286;2022-10-13T13:17:47;99779.06;;;18.51;87.91
51321;BME280;38732;49.556;6.286;2022-10-13T13:20:31;99780.81;;;18.51;87.54
51321;BME280;38732;49.556;6.286;2022-10-13T13:22:59;99793.81;;;18.54;87.61
51321;BME280;38732;49.556;6.286;2022-10-13T13:25:28;99784.13;;;18.58;86.13
51321;BME280;38732;49.556;6.286;2022-10-13T13:27:56;99784.19;;;18.54;88.15
51321;BME280;38732;49.556;6.286;2022-10-13T13:30:25;99785.19;;;18.50;87.76
51321;BME280;38732;49.556;6.286;2022-10-13T13:32:53;99788.63;;;18.52;89.04
51321;BME280;38732;49.556;6.286;2022-10-13T13:35:21;99786.75;;;18.58;90.67
51321;BME280;38732;49.556;6.286;2022-10-13T13:37:50;99788.25;;;18.66;91.06
51321;BME280;38732;49.556;6.286;2022-10-13T13:40:25;99782.25;;;18.63;88.99
51321;BME280;38732;49.556;6.286;2022-10-13T13:42:53;99786.56;;;18.64;89.73
51321;BME280;38732;49.556;6.286;2022-10-13T13:45:22;99789.06;;;18.68;90.61
51321;BME280;38732;49.556;6.286;2022-10-13T13:47:51;99779.41;;;18.70;88.80
51321;BME280;38732;49.556;6.286;2022-10-13T13:50:25;99771.38;;;18.78;87.32
51321;BME280;38732;49.556;6.286;2022-10-13T13:52:53;99778.28;;;18.81;88.75
51321;BME280;38732;49.556;6.286;2022-10-13T13:55:22;99775.44;;;18.88;88.41
51321;BME280;38732;49.556;6.286;2022-10-13T13:57:51;99771.84;;;18.92;88.81
51321;BME280;38732;49.556;6.286;2022-10-13T14:00:19;99771.72;;;18.97;89.33
51321;BME280;38732;49.556;6.286;2022-10-13T14:02:48;99771.44;;;18.75;88.16
51321;BME280;38732;49.556;6.286;2022-10-13T14:05:16;99765.56;;;18.98;87.98
51321;BME280;38732;49.556;6.286;2022-10-13T14:07:44;99759.38;;;19.01;88.95
51321;BME280;38732;49.556;6.286;2022-10-13T14:10:12;99765.63;;;18.65;89.63
51321;BME280;38732;49.556;6.286;2022-10-13T14:12:41;99758.63;;;18.97;88.81
51321;BME280;38732;49.556;6.286;2022-10-13T14:15:09;99758.47;;;19.02;88.91
51321;BME280;38732;49.556;6.286;2022-10-13T14:17:37;99747.22;;;19.00;88.92
51321;BME280;38732;49.556;6.286;2022-10-13T14:20:06;99739.34;;;19.00;88.85
51321;BME280;38732;49.556;6.286;2022-10-13T14:22:38;99742.88;;;18.99;89.09
51321;BME280;38732;49.556;6.286;2022-10-13T14:25:07;99735.97;;;18.96;90.41
51321;BME280;38732;49.556;6.286;2022-10-13T14:27:35;99731.69;;;18.93;90.72
51321;BME280;38732;49.556;6.286;2022-10-13T14:30:05;99736.06;;;18.93;91.28
51321;BME280;38732;49.556;6.286;2022-10-13T14:32:36;99736.00;;;18.94;92.65
51321;BME280;38732;49.556;6.286;2022-10-13T14:35:05;99741.56;;;18.84;92.49
51321;BME280;38732;49.556;6.286;2022-10-13T14:37:33;99733.78;;;18.82;91.28
51321;BME280;38732;49.556;6.286;2022-10-13T14:40:01;99733.94;;;18.74;91.12
51321;BME280;38732;49.556;6.286;2022-10-13T14:42:30;99730.53;;;18.72;91.94